sensor_id;sensor_type;location;lat;lon;timestamp;pressure;altitude;pressure_sealevel;temperature;humidity
80118;BME280;69424;48.770;-1.564;2023-11-21T00:00:02;101645.38;;;12.83;83.15
80118;BME280;69424;48.770;-1.564;2023-11-21T00:01:04;101649.27;;;12.82;82.89
80118;BME280;69424;48.770;-1.564;2023-11-21T00:01:44;101648.02;;;12.82;82.88
80118;BME280;69424;48.770;-1.564;2023-11-21T00:02:18;101650.86;;;12.82;82.90
80118;BME280;69424;48.770;-1.564;2023-11-21T00:02:54;101646.94;;;12.81;83.01
80118;BME280;69424;48.770;-1.564;2023-11-21T00:03:27;101647.67;;;12.82;83.05
80118;BME280;69424;48.770;-1.564;2023-11-21T00:04:01;101649.61;;;12.82;83.04
80118;BME280;69424;48.770;-1.564;2023-11-21T00:04:34;101650.33;;;12.82;83.24
80118;BME280;69424;48.770;-1.564;2023-11-21T00:05:12;101652.11;;;12.83;82.99
80118;BME280;69424;48.770;-1.564;2023-11-21T00:06:00;101653.70;;;12.83;83.08
80118;BME280;69424;48.770;-1.564;2023-11-21T00:06:41;101651.91;;;12.82;82.90
80118;BME280;69424;48.770;-1.564;2023-11-21T00:07:15;101652.45;;;12.81;82.86
80118;BME280;69424;48.770;-1.564;2023-11-21T00:07:50;101652.80;;;12.81;82.98
80118;BME280;69424;48.770;-1.564;2023-11-21T00:08:25;101649.08;;;12.81;82.95
80118;BME280;69424;48.770;-1.564;2023-11-21T00:08:58;101647.12;;;12.81;82.89
80118;BME280;69424;48.770;-1.564;2023-11-21T00:09:34;101649.61;;;12.82;82.87
80118;BME280;69424;48.770;-1.564;2023-11-21T00:10:10;101651.03;;;12.82;82.87
80118;BME280;69424;48.770;-1.564;2023-11-21T00:10:47;101651.73;;;12.81;82.93
80118;BME280;69424;48.770;-1.564;2023-11-21T00:11:23;101651.55;;;12.80;83.00
80118;BME280;69424;48.770;-1.564;2023-11-21T00:12:01;101652.80;;;12.81;82.94
80118;BME280;69424;48.770;-1.564;2023-11-21T00:12:35;101653.13;;;12.79;82.88
80118;BME280;69424;48.770;-1.564;2023-11-21T00:13:13;101657.58;;;12.79;83.06
80118;BME280;69424;48.770;-1.564;2023-11-21T00:13:46;101658.41;;;12.77;82.89
80118;BME280;69424;48.770;-1.564;2023-11-21T00:14:22;101656.61;;;12.74;82.85
80118;BME280;69424;48.770;-1.564;2023-11-21T00:14:57;101656.61;;;12.76;82.93
80118;BME280;69424;48.770;-1.564;2023-11-21T00:15:36;101656.24;;;12.75;82.95
80118;BME280;69424;48.770;-1.564;2023-11-21T00:16:09;101652.34;;;12.74;83.24
80118;BME280;69424;48.770;-1.564;2023-11-21T00:16:42;101657.30;;;12.73;83.20
80118;BME280;69424;48.770;-1.564;2023-11-21T00:17:16;101654.27;;;12.73;83.15
80118;BME280;69424;48.770;-1.564;2023-11-21T00:17:49;101653.92;;;12.72;83.32
80118;BME280;69424;48.770;-1.564;2023-11-21T00:18:25;101655.69;;;12.72;83.45
80118;BME280;69424;48.770;-1.564;2023-11-21T00:18:58;101651.42;;;12.72;83.59
80118;BME280;69424;48.770;-1.564;2023-11-21T00:19:32;101652.32;;;12.72;83.69
80118;BME280;69424;48.770;-1.564;2023-11-21T00:20:07;101652.86;;;12.72;83.68
80118;BME280;69424;48.770;-1.564;2023-11-21T00:20:40;101650.54;;;12.72;83.64
80118;BME280;69424;48.770;-1.564;2023-11-21T00:21:13;101657.83;;;12.73;83.90
80118;BME280;69424;48.770;-1.564;2023-11-21T00:21:48;101654.62;;;12.72;83.90
80118;BME280;69424;48.770;-1.564;2023-11-21T00:22:21;101662.42;;;12.72;83.86
80118;BME280;69424;48.770;-1.564;2023-11-21T00:22:55;101662.05;;;12.70;83.62
80118;BME280;69424;48.770;-1.564;2023-11-21T00:23:28;101659.37;;;12.70;83.52
80118;BME280;69424;48.770;-1.564;2023-11-21T00:24:03;101664.17;;;12.70;83.50
80118;BME280;69424;48.770;-1.564;2023-11-21T00:24:37;101665.23;;;12.69;83.32
80118;BME280;69424;48.770;-1.564;2023-11-21T00:25:10;101669.13;;;12.70;83.09
80118;BME280;69424;48.770;-1.564;2023-11-21T00:25:43;101665.77;;;12.70;82.87
80118;BME280;69424;48.770;-1.564;2023-11-21T00:26:17;101664.52;;;12.70;82.76
80118;BME280;69424;48.770;-1.564;2023-11-21T00:26:52;101667.38;;;12.70;82.93
80118;BME280;69424;48.770;-1.564;2023-11-21T00:27:28;101665.08;;;12.71;82.71
80118;BME280;69424;48.770;-1.564;2023-11-21T00:28:01;101667.05;;;12.72;82.81
80118;BME280;69424;48.770;-1.564;2023-11-21T00:28:36;101667.04;;;12.72;82.85
80118;BME280;69424;48.770;-1.564;2023-11-21T00:29:09;101672.20;;;12.74;82.78
80118;BME280;69424;48.770;-1.564;2023-11-21T00:29:43;101669.01;;;12.73;82.66
80118;BME280;69424;48.770;-1.564;2023-11-21T00:30:17;101671.50;;;12.74;82.52
80118;BME280;69424;48.770;-1.564;2023-11-21T00:30:50;101673.09;;;12.73;82.67
80118;BME280;69424;48.770;-1.564;2023-11-21T00:31:23;101672.20;;;12.72;82.60
80118;BME280;69424;48.770;-1.564;2023-11-21T00:31:57;101671.45;;;12.70;82.85
80118;BME280;69424;48.770;-1.564;2023-11-21T00:32:31;101674.66;;;12.71;82.68
80118;BME280;69424;48.770;-1.564;2023-11-21T00:33:04;101674.65;;;12.71;82.70
80118;BME280;69424;48.770;-1.564;2023-11-21T00:33:37;101670.74;;;12.71;82.82
80118;BME280;69424;48.770;-1.564;2023-11-21T00:34:12;101675.73;;;12.71;82.88
80118;BME280;69424;48.770;-1.564;2023-11-21T00:34:47;101676.47;;;12.73;82.79
80118;BME280;69424;48.770;-1.564;2023-11-21T00:35:21;101675.23;;;12.74;82.72
80118;BME280;69424;48.770;-1.564;2023-11-21T00:35:54;101675.59;;;12.74;82.60
80118;BME280;69424;48.770;-1.564;2023-11-21T00:36:27;101677.73;;;12.75;82.70
80118;BME280;69424;48.770;-1.564;2023-11-21T00:37:00;101676.87;;;12.76;82.21
80118;BME280;69424;48.770;-1.564;2023-11-21T00:37:36;101673.14;;;12.76;82.36
80118;BME280;69424;48.770;-1.564;2023-11-21T00:38:12;101679.49;;;12.74;81.92
80118;BME280;69424;48.770;-1.564;2023-11-21T00:38:45;101684.11;;;12.75;81.84
80118;BME280;69424;48.770;-1.564;2023-11-21T00:39:23;101690.50;;;12.74;81.68
80118;BME280;69424;48.770;-1.564;2023-11-21T00:39:56;101691.73;;;12.74;81.97
80118;BME280;69424;48.770;-1.564;2023-11-21T00:40:29;101687.66;;;12.74;82.03
80118;BME280;69424;48.770;-1.564;2023-11-21T00:41:06;101696.16;;;12.72;82.29
80118;BME280;69424;48.770;-1.564;2023-11-21T00:41:42;101696.30;;;12.70;81.95
80118;BME280;69424;48.770;-1.564;2023-11-21T00:42:17;101696.97;;;12.68;82.07
80118;BME280;69424;48.770;-1.564;2023-11-21T00:42:55;101699.77;;;12.65;82.02
80118;BME280;69424;48.770;-1.564;2023-11-21T00:43:30;101694.22;;;12.62;82.21
80118;BME280;69424;48.770;-1.564;2023-11-21T00:44:06;101692.92;;;12.59;82.06
80118;BME280;69424;48.770;-1.564;2023-11-21T00:44:39;101693.22;;;12.55;81.97
80118;BME280;69424;48.770;-1.564;2023-11-21T00:45:14;101691.59;;;12.52;82.07
80118;BME280;69424;48.770;-1.564;2023-11-21T00:45:47;101696.86;;;12.50;82.33
80118;BME280;69424;48.770;-1.564;2023-11-21T00:46:22;101691.85;;;12.47;82.30
80118;BME280;69424;48.770;-1.564;2023-11-21T00:46:57;101692.70;;;12.44;82.57
80118;BME280;69424;48.770;-1.564;2023-11-21T00:47:30;101694.08;;;12.42;82.72
80118;BME280;69424;48.770;-1.564;2023-11-21T00:48:03;101692.98;;;12.39;82.57
80118;BME280;69424;48.770;-1.564;2023-11-21T00:48:38;101692.06;;;12.38;82.97
80118;BME280;69424;48.770;-1.564;2023-11-21T00:49:11;101686.91;;;12.38;82.92
80118;BME280;69424;48.770;-1.564;2023-11-21T00:49:44;101685.10;;;12.37;82.91
80118;BME280;69424;48.770;-1.564;2023-11-21T00:50:17;101688.64;;;12.36;83.14
80118;BME280;69424;48.770;-1.564;2023-11-21T00:50:50;101690.95;;;12.36;82.98
80118;BME280;69424;48.770;-1.564;2023-11-21T00:51:24;101694.48;;;12.34;83.02
80118;BME280;69424;48.770;-1.564;2023-11-21T00:51:57;101689.69;;;12.34;83.14
80118;BME280;69424;48.770;-1.564;2023-11-21T00:52:34;101692.16;;;12.34;82.98
80118;BME280;69424;48.770;-1.564;2023-11-21T00:53:10;101696.21;;;12.33;83.44
80118;BME280;69424;48.770;-1.564;2023-11-21T00:53:47;101697.84;;;12.33;83.24
80118;BME280;69424;48.770;-1.564;2023-11-21T00:54:20;101696.92;;;12.32;83.41
80118;BME280;69424;48.770;-1.564;2023-11-21T00:54:53;101697.27;;;12.32;83.52
80118;BME280;69424;48.770;-1.564;2023-11-21T00:55:26;101702.25;;;12.32;83.47
80118;BME280;69424;48.770;-1.564;2023-11-21T00:56:01;101700.62;;;12.31;83.47
80118;BME280;69424;48.770;-1.564;2023-11-21T00:56:34;101700.25;;;12.30;83.64
80118;BME280;69424;48.770;-1.564;2023-11-21T00:57:07;101702.38;;;12.29;83.37
80118;BME280;69424;48.770;-1.564;2023-11-21T00:57:41;101704.30;;;12.28;83.15
80118;BME280;69424;48.770;-1.564;2023-11-21T00:58:15;101710.31;;;12.27;83.05
80118;BME280;69424;48.770;-1.564;2023-11-21T00:58:47;101710.29;;;12.25;83.09
80118;BME280;69424;48.770;-1.564;2023-11-21T00:59:25;101707.23;;;12.23;82.86
80118;BME280;69424;48.770;-1.564;2023-11-21T00:59:58;101703.27;;;12.19;82.85
80118;BME280;69424;48.770;-1.564;2023-11-21T01:00:33;101703.79;;;12.18;82.97
80118;BME280;69424;48.770;-1.564;2023-11-21T01:01:09;101708.00;;;12.16;82.85
80118;BME280;69424;48.770;-1.564;2023-11-21T01:01:43;101709.05;;;12.15;83.12
80118;BME280;69424;48.770;-1.564;2023-11-21T01:02:17;101703.85;;;12.12;83.04
80118;BME280;69424;48.770;-1.564;2023-11-21T01:02:53;101700.64;;;12.11;83.19
80118;BME280;69424;48.770;-1.564;2023-11-21T01:03:27;101700.79;;;12.09;83.19
80118;BME280;69424;48.770;-1.564;2023-11-21T01:04:00;101699.38;;;12.09;83.39
80118;BME280;69424;48.770;-1.564;2023-11-21T01:04:33;101702.18;;;12.09;83.42
80118;BME280;69424;48.770;-1.564;2023-11-21T01:05:08;101701.67;;;12.09;83.67
80118;BME280;69424;48.770;-1.564;2023-11-21T01:05:42;101697.42;;;12.09;83.32
80118;BME280;69424;48.770;-1.564;2023-11-21T01:06:15;101701.65;;;12.09;83.39
80118;BME280;69424;48.770;-1.564;2023-11-21T01:06:48;101705.55;;;12.09;83.21
80118;BME280;69424;48.770;-1.564;2023-11-21T01:07:21;101706.44;;;12.08;83.23
80118;BME280;69424;48.770;-1.564;2023-11-21T01:07:56;101706.65;;;12.09;83.43
80118;BME280;69424;48.770;-1.564;2023-11-21T01:08:29;101706.99;;;12.10;83.73
80118;BME280;69424;48.770;-1.564;2023-11-21T01:09:02;101714.80;;;12.10;84.21
80118;BME280;69424;48.770;-1.564;2023-11-21T01:09:43;101708.28;;;12.12;84.26
80118;BME280;69424;48.770;-1.564;2023-11-21T01:10:17;101709.00;;;12.14;84.47
80118;BME280;69424;48.770;-1.564;2023-11-21T01:10:50;101709.57;;;12.15;84.65
80118;BME280;69424;48.770;-1.564;2023-11-21T01:11:26;101713.83;;;12.16;84.79
80118;BME280;69424;48.770;-1.564;2023-11-21T01:11:59;101711.90;;;12.17;84.73
80118;BME280;69424;48.770;-1.564;2023-11-21T01:12:34;101708.38;;;12.18;84.71
80118;BME280;69424;48.770;-1.564;2023-11-21T01:13:11;101711.77;;;12.19;84.72
80118;BME280;69424;48.770;-1.564;2023-11-21T01:13:44;101708.61;;;12.21;84.64
80118;BME280;69424;48.770;-1.564;2023-11-21T01:14:17;101702.94;;;12.21;84.49
80118;BME280;69424;48.770;-1.564;2023-11-21T01:14:51;101701.02;;;12.22;84.56
80118;BME280;69424;48.770;-1.564;2023-11-21T01:15:24;101700.33;;;12.24;84.53
80118;BME280;69424;48.770;-1.564;2023-11-21T01:15:58;101702.48;;;12.25;84.47
80118;BME280;69424;48.770;-1.564;2023-11-21T01:16:32;101701.77;;;12.25;84.36
80118;BME280;69424;48.770;-1.564;2023-11-21T01:17:05;101702.69;;;12.27;84.49
80118;BME280;69424;48.770;-1.564;2023-11-21T01:17:39;101705.89;;;12.28;84.46
80118;BME280;69424;48.770;-1.564;2023-11-21T01:18:12;101701.66;;;12.29;84.22
80118;BME280;69424;48.770;-1.564;2023-11-21T01:18:46;101702.39;;;12.29;84.20
80118;BME280;69424;48.770;-1.564;2023-11-21T01:19:19;101701.85;;;12.29;84.14
80118;BME280;69424;48.770;-1.564;2023-11-21T01:19:52;101703.77;;;12.28;84.18
80118;BME280;69424;48.770;-1.564;2023-11-21T01:20:25;101701.98;;;12.27;83.94
80118;BME280;69424;48.770;-1.564;2023-11-21T01:20:59;101709.07;;;12.27;84.10
80118;BME280;69424;48.770;-1.564;2023-11-21T01:21:33;101704.44;;;12.26;83.86
80118;BME280;69424;48.770;-1.564;2023-11-21T01:22:06;101700.70;;;12.25;84.01
80118;BME280;69424;48.770;-1.564;2023-11-21T01:22:40;101702.12;;;12.24;83.90
80118;BME280;69424;48.770;-1.564;2023-11-21T01:23:13;101701.23;;;12.24;83.85
80118;BME280;69424;48.770;-1.564;2023-11-21T01:23:47;101700.67;;;12.23;83.97
80118;BME280;69424;48.770;-1.564;2023-11-21T01:24:21;101704.95;;;12.24;84.00
80118;BME280;69424;48.770;-1.564;2023-11-21T01:24:54;101702.65;;;12.24;84.08
80118;BME280;69424;48.770;-1.564;2023-11-21T01:25:27;101702.48;;;12.25;84.08
80118;BME280;69424;48.770;-1.564;2023-11-21T01:26:00;101705.84;;;12.24;84.12
80118;BME280;69424;48.770;-1.564;2023-11-21T01:26:34;101696.80;;;12.24;84.11
80118;BME280;69424;48.770;-1.564;2023-11-21T01:27:07;101704.25;;;12.26;84.08
80118;BME280;69424;48.770;-1.564;2023-11-21T01:27:42;101703.55;;;12.26;84.12
80118;BME280;69424;48.770;-1.564;2023-11-21T01:28:18;101707.82;;;12.26;84.18
80118;BME280;69424;48.770;-1.564;2023-11-21T01:28:52;101706.94;;;12.27;84.20
80118;BME280;69424;48.770;-1.564;2023-11-21T01:29:25;101704.11;;;12.27;84.25
80118;BME280;69424;48.770;-1.564;2023-11-21T01:29:59;101706.08;;;12.28;83.94
80118;BME280;69424;48.770;-1.564;2023-11-21T01:30:32;101705.02;;;12.29;83.96
80118;BME280;69424;48.770;-1.564;2023-11-21T01:31:05;101703.77;;;12.28;83.96
80118;BME280;69424;48.770;-1.564;2023-11-21T01:31:40;101704.15;;;12.29;83.87
80118;BME280;69424;48.770;-1.564;2023-11-21T01:32:14;101703.44;;;12.29;83.81
80118;BME280;69424;48.770;-1.564;2023-11-21T01:32:47;101708.25;;;12.30;83.92
80118;BME280;69424;48.770;-1.564;2023-11-21T01:33:22;101705.41;;;12.31;83.72
80118;BME280;69424;48.770;-1.564;2023-11-21T01:33:58;101703.27;;;12.31;83.82
80118;BME280;69424;48.770;-1.564;2023-11-21T01:34:34;101703.84;;;12.32;83.79
80118;BME280;69424;48.770;-1.564;2023-11-21T01:35:08;101707.57;;;12.33;83.92
80118;BME280;69424;48.770;-1.564;2023-11-21T01:35:42;101705.80;;;12.33;83.73
80118;BME280;69424;48.770;-1.564;2023-11-21T01:36:15;101705.29;;;12.33;83.81
80118;BME280;69424;48.770;-1.564;2023-11-21T01:36:50;101706.86;;;12.32;83.79
80118;BME280;69424;48.770;-1.564;2023-11-21T01:37:23;101707.02;;;12.31;83.77
80118;BME280;69424;48.770;-1.564;2023-11-21T01:37:57;101705.40;;;12.30;84.04
80118;BME280;69424;48.770;-1.564;2023-11-21T01:38:33;101706.09;;;12.29;83.93
80118;BME280;69424;48.770;-1.564;2023-11-21T01:39:06;101702.54;;;12.29;84.04
80118;BME280;69424;48.770;-1.564;2023-11-21T01:39:41;101706.41;;;12.27;83.37
80118;BME280;69424;48.770;-1.564;2023-11-21T01:40:14;101705.36;;;12.27;83.31
80118;BME280;69424;48.770;-1.564;2023-11-21T01:40:49;101711.56;;;12.27;83.16
80118;BME280;69424;48.770;-1.564;2023-11-21T01:41:27;101710.83;;;12.27;83.31
80118;BME280;69424;48.770;-1.564;2023-11-21T01:42:00;101714.04;;;12.27;82.76
80118;BME280;69424;48.770;-1.564;2023-11-21T01:42:34;101714.20;;;12.26;82.88
80118;BME280;69424;48.770;-1.564;2023-11-21T01:43:07;101718.98;;;12.27;82.78
80118;BME280;69424;48.770;-1.564;2023-11-21T01:43:41;101715.45;;;12.26;82.58
80118;BME280;69424;48.770;-1.564;2023-11-21T01:44:14;101717.78;;;12.27;82.59
80118;BME280;69424;48.770;-1.564;2023-11-21T01:44:49;101717.41;;;12.27;82.48
80118;BME280;69424;48.770;-1.564;2023-11-21T01:45:23;101717.61;;;12.28;82.19
80118;BME280;69424;48.770;-1.564;2023-11-21T01:45:58;101713.70;;;12.28;82.05
80118;BME280;69424;48.770;-1.564;2023-11-21T01:46:31;101714.62;;;12.29;82.25
80118;BME280;69424;48.770;-1.564;2023-11-21T01:47:06;101718.34;;;12.30;82.21
80118;BME280;69424;48.770;-1.564;2023-11-21T01:47:40;101717.45;;;12.29;82.38
80118;BME280;69424;48.770;-1.564;2023-11-21T01:48:14;101713.37;;;12.30;82.51
80118;BME280;69424;48.770;-1.564;2023-11-21T01:48:50;101719.95;;;12.30;82.45
80118;BME280;69424;48.770;-1.564;2023-11-21T01:49:23;101716.23;;;12.31;82.51
80118;BME280;69424;48.770;-1.564;2023-11-21T01:49:56;101721.36;;;12.30;82.59
80118;BME280;69424;48.770;-1.564;2023-11-21T01:50:30;101716.56;;;12.30;82.58
80118;BME280;69424;48.770;-1.564;2023-11-21T01:51:06;101719.23;;;12.30;82.52
80118;BME280;69424;48.770;-1.564;2023-11-21T01:51:41;101722.44;;;12.30;82.50
80118;BME280;69424;48.770;-1.564;2023-11-21T01:52:14;101728.63;;;12.29;82.32
80118;BME280;69424;48.770;-1.564;2023-11-21T01:52:48;101722.60;;;12.29;82.30
80118;BME280;69424;48.770;-1.564;2023-11-21T01:53:23;101722.44;;;12.31;82.39
80118;BME280;69424;48.770;-1.564;2023-11-21T01:53:57;101721.02;;;12.31;82.14
80118;BME280;69424;48.770;-1.564;2023-11-21T01:54:31;101717.30;;;12.31;82.30
80118;BME280;69424;48.770;-1.564;2023-11-21T01:55:06;101732.20;;;12.31;82.04
80118;BME280;69424;48.770;-1.564;2023-11-21T01:55:41;101722.82;;;12.32;81.89
80118;BME280;69424;48.770;-1.564;2023-11-21T01:56:16;101723.54;;;12.32;82.14
80118;BME280;69424;48.770;-1.564;2023-11-21T01:56:49;101728.14;;;12.33;82.01
80118;BME280;69424;48.770;-1.564;2023-11-21T01:57:22;101730.80;;;12.33;82.20
80118;BME280;69424;48.770;-1.564;2023-11-21T01:57:56;101729.74;;;12.33;82.09
80118;BME280;69424;48.770;-1.564;2023-11-21T01:58:33;101726.90;;;12.32;81.68
80118;BME280;69424;48.770;-1.564;2023-11-21T01:59:07;101732.73;;;12.31;81.83
80118;BME280;69424;48.770;-1.564;2023-11-21T01:59:41;101735.55;;;12.30;81.59
80118;BME280;69424;48.770;-1.564;2023-11-21T02:00:23;101734.49;;;12.30;81.47
80118;BME280;69424;48.770;-1.564;2023-11-21T02:00:57;101731.06;;;12.27;80.98
80118;BME280;69424;48.770;-1.564;2023-11-21T02:01:31;101732.13;;;12.27;81.38
80118;BME280;69424;48.770;-1.564;2023-11-21T02:02:07;101734.58;;;12.25;81.55
80118;BME280;69424;48.770;-1.564;2023-11-21T02:02:45;101733.66;;;12.23;81.54
80118;BME280;69424;48.770;-1.564;2023-11-21T02:03:19;101735.43;;;12.22;81.69
80118;BME280;69424;48.770;-1.564;2023-11-21T02:03:53;101731.47;;;12.20;81.68
80118;BME280;69424;48.770;-1.564;2023-11-21T02:04:27;101733.60;;;12.20;81.83
80118;BME280;69424;48.770;-1.564;2023-11-21T02:05:01;101735.19;;;12.19;82.02
80118;BME280;69424;48.770;-1.564;2023-11-21T02:05:35;101731.10;;;12.20;82.09
80118;BME280;69424;48.770;-1.564;2023-11-21T02:06:09;101732.17;;;12.20;82.24
80118;BME280;69424;48.770;-1.564;2023-11-21T02:06:42;101733.05;;;12.19;82.06
80118;BME280;69424;48.770;-1.564;2023-11-21T02:07:16;101730.73;;;12.19;81.95
80118;BME280;69424;48.770;-1.564;2023-11-21T02:07:51;101730.73;;;12.18;81.82
80118;BME280;69424;48.770;-1.564;2023-11-21T02:08:25;101731.08;;;12.18;82.05
80118;BME280;69424;48.770;-1.564;2023-11-21T02:08:59;101733.73;;;12.18;81.91
80118;BME280;69424;48.770;-1.564;2023-11-21T02:09:32;101737.47;;;12.19;81.91
80118;BME280;69424;48.770;-1.564;2023-11-21T02:10:07;101738.02;;;12.19;81.97
80118;BME280;69424;48.770;-1.564;2023-11-21T02:10:41;101733.95;;;12.19;82.13
80118;BME280;69424;48.770;-1.564;2023-11-21T02:11:15;101736.80;;;12.20;82.38
80118;BME280;69424;48.770;-1.564;2023-11-21T02:11:49;101740.71;;;12.21;82.68
80118;BME280;69424;48.770;-1.564;2023-11-21T02:12:22;101744.97;;;12.21;82.49
80118;BME280;69424;48.770;-1.564;2023-11-21T02:12:56;101744.98;;;12.22;82.38
80118;BME280;69424;48.770;-1.564;2023-11-21T02:13:31;101743.03;;;12.22;82.79
80118;BME280;69424;48.770;-1.564;2023-11-21T02:14:06;101746.23;;;12.22;82.92
80118;BME280;69424;48.770;-1.564;2023-11-21T02:14:42;101745.36;;;12.23;83.25
80118;BME280;69424;48.770;-1.564;2023-11-21T02:15:16;101747.32;;;12.23;83.31
80118;BME280;69424;48.770;-1.564;2023-11-21T02:15:59;101742.35;;;12.23;83.43
80118;BME280;69424;48.770;-1.564;2023-11-21T02:16:33;101744.29;;;12.22;83.66
80118;BME280;69424;48.770;-1.564;2023-11-21T02:17:06;101744.11;;;12.22;83.86
80118;BME280;69424;48.770;-1.564;2023-11-21T02:17:39;101743.05;;;12.22;83.93
80118;BME280;69424;48.770;-1.564;2023-11-21T02:18:13;101744.98;;;12.22;83.74
80118;BME280;69424;48.770;-1.564;2023-11-21T02:18:48;101746.40;;;12.22;84.04
80118;BME280;69424;48.770;-1.564;2023-11-21T02:19:23;101747.65;;;12.22;84.33
80118;BME280;69424;48.770;-1.564;2023-11-21T02:19:58;101746.95;;;12.22;84.46
80118;BME280;69424;48.770;-1.564;2023-11-21T02:20:33;101745.00;;;12.23;84.65
80118;BME280;69424;48.770;-1.564;2023-11-21T02:21:09;101747.67;;;12.23;84.71
80118;BME280;69424;48.770;-1.564;2023-11-21T02:21:43;101755.79;;;12.21;85.06
80118;BME280;69424;48.770;-1.564;2023-11-21T02:22:18;101753.64;;;12.20;84.88
80118;BME280;69424;48.770;-1.564;2023-11-21T02:22:56;101743.91;;;12.21;84.82
80118;BME280;69424;48.770;-1.564;2023-11-21T02:23:34;101751.51;;;12.20;84.66
80118;BME280;69424;48.770;-1.564;2023-11-21T02:24:08;101751.30;;;12.18;84.74
80118;BME280;69424;48.770;-1.564;2023-11-21T02:24:43;101749.15;;;12.17;84.60
80118;BME280;69424;48.770;-1.564;2023-11-21T02:25:16;101749.11;;;12.16;84.92
80118;BME280;69424;48.770;-1.564;2023-11-21T02:25:50;101749.11;;;12.15;84.80
80118;BME280;69424;48.770;-1.564;2023-11-21T02:26:24;101748.20;;;12.14;84.99
80118;BME280;69424;48.770;-1.564;2023-11-21T02:26:58;101745.90;;;12.14;84.88
80118;BME280;69424;48.770;-1.564;2023-11-21T02:27:32;101749.44;;;12.14;84.81
80118;BME280;69424;48.770;-1.564;2023-11-21T02:28:05;101749.45;;;12.14;84.94
80118;BME280;69424;48.770;-1.564;2023-11-21T02:28:40;101749.79;;;12.13;85.01
80118;BME280;69424;48.770;-1.564;2023-11-21T02:29:14;101747.27;;;12.12;85.17
80118;BME280;69424;48.770;-1.564;2023-11-21T02:29:50;101752.58;;;12.11;85.00
80118;BME280;69424;48.770;-1.564;2023-11-21T02:30:23;101742.81;;;12.10;84.96
80118;BME280;69424;48.770;-1.564;2023-11-21T02:30:58;101752.75;;;12.10;84.89
80118;BME280;69424;48.770;-1.564;2023-11-21T02:31:32;101749.91;;;12.10;84.77
80118;BME280;69424;48.770;-1.564;2023-11-21T02:32:06;101757.53;;;12.10;84.76
80118;BME280;69424;48.770;-1.564;2023-11-21T02:32:39;101754.88;;;12.10;84.66
80118;BME280;69424;48.770;-1.564;2023-11-21T02:33:22;101755.03;;;12.09;84.64
80118;BME280;69424;48.770;-1.564;2023-11-21T02:33:55;101756.27;;;12.09;84.65
80118;BME280;69424;48.770;-1.564;2023-11-21T02:34:28;101760.14;;;12.07;84.38
80118;BME280;69424;48.770;-1.564;2023-11-21T02:35:02;101759.23;;;12.07;84.41
80118;BME280;69424;48.770;-1.564;2023-11-21T02:35:41;101755.13;;;12.05;84.37
80118;BME280;69424;48.770;-1.564;2023-11-21T02:36:16;101763.44;;;12.03;84.39
80118;BME280;69424;48.770;-1.564;2023-11-21T02:36:49;101762.71;;;12.02;84.41
80118;BME280;69424;48.770;-1.564;2023-11-21T02:37:22;101761.10;;;12.02;84.39
80118;BME280;69424;48.770;-1.564;2023-11-21T02:37:56;101760.55;;;12.01;84.51
80118;BME280;69424;48.770;-1.564;2023-11-21T02:38:30;101767.10;;;12.01;84.34
80118;BME280;69424;48.770;-1.564;2023-11-21T02:39:03;101760.52;;;12.00;84.25
80118;BME280;69424;48.770;-1.564;2023-11-21T02:39:37;101762.10;;;11.99;84.42
80118;BME280;69424;48.770;-1.564;2023-11-21T02:40:11;101764.92;;;11.98;84.08
80118;BME280;69424;48.770;-1.564;2023-11-21T02:40:51;101763.84;;;11.98;83.96
80118;BME280;69424;48.770;-1.564;2023-11-21T02:41:24;101763.13;;;11.98;83.97
80118;BME280;69424;48.770;-1.564;2023-11-21T02:41:59;101760.83;;;11.97;84.16
80118;BME280;69424;48.770;-1.564;2023-11-21T02:42:32;101764.00;;;11.96;84.16
80118;BME280;69424;48.770;-1.564;2023-11-21T02:43:07;101769.30;;;11.95;84.04
80118;BME280;69424;48.770;-1.564;2023-11-21T02:43:42;101766.81;;;11.95;83.94
80118;BME280;69424;48.770;-1.564;2023-11-21T02:44:16;101762.55;;;11.94;83.92
80118;BME280;69424;48.770;-1.564;2023-11-21T02:44:50;101764.84;;;11.94;84.01
80118;BME280;69424;48.770;-1.564;2023-11-21T02:45:23;101768.02;;;11.93;84.00
80118;BME280;69424;48.770;-1.564;2023-11-21T02:45:57;101766.75;;;11.92;83.98
80118;BME280;69424;48.770;-1.564;2023-11-21T02:46:30;101770.11;;;11.92;84.22
80118;BME280;69424;48.770;-1.564;2023-11-21T02:47:05;101773.66;;;11.92;84.08
80118;BME280;69424;48.770;-1.564;2023-11-21T02:47:39;101773.97;;;11.91;84.00
80118;BME280;69424;48.770;-1.564;2023-11-21T02:48:13;101774.30;;;11.89;83.93
80118;BME280;69424;48.770;-1.564;2023-11-21T02:48:47;101769.50;;;11.89;83.91
80118;BME280;69424;48.770;-1.564;2023-11-21T02:49:20;101768.96;;;11.88;84.00
80118;BME280;69424;48.770;-1.564;2023-11-21T02:49:53;101770.52;;;11.87;84.08
80118;BME280;69424;48.770;-1.564;2023-11-21T02:50:27;101763.41;;;11.86;84.14
80118;BME280;69424;48.770;-1.564;2023-11-21T02:51:00;101767.30;;;11.85;84.13
80118;BME280;69424;48.770;-1.564;2023-11-21T02:51:34;101764.80;;;11.84;84.09
80118;BME280;69424;48.770;-1.564;2023-11-21T02:52:07;101762.11;;;11.83;84.22
80118;BME280;69424;48.770;-1.564;2023-11-21T02:52:40;101763.52;;;11.82;84.10
80118;BME280;69424;48.770;-1.564;2023-11-21T02:53:14;101761.19;;;11.81;84.20
80118;BME280;69424;48.770;-1.564;2023-11-21T02:53:49;101760.64;;;11.81;84.00
80118;BME280;69424;48.770;-1.564;2023-11-21T02:54:24;101758.34;;;11.81;84.11
80118;BME280;69424;48.770;-1.564;2023-11-21T02:54:57;101762.06;;;11.80;84.23
80118;BME280;69424;48.770;-1.564;2023-11-21T02:55:31;101759.94;;;11.81;84.26
80118;BME280;69424;48.770;-1.564;2023-11-21T02:56:07;101762.77;;;11.81;84.35
80118;BME280;69424;48.770;-1.564;2023-11-21T02:56:41;101764.53;;;11.80;84.41
80118;BME280;69424;48.770;-1.564;2023-11-21T02:57:14;101764.19;;;11.81;84.10
80118;BME280;69424;48.770;-1.564;2023-11-21T02:57:47;101763.30;;;11.81;84.11